Latest Weather Observations for Merriwa

IDN60801

Issued at 4:32 am EDT Tuesday 28 February 2017 (issued every 30 minutes, with the page automatically refreshed every 10 minutes)

About weather observations | Map of weather stations | Latest weather observations for NSW | Other Formats
Station Details ID: 061287 Name: MERRIWA (ROSCOMMON) Lat: -32.19 Lon: 150.17 Height: 375.0 m
Data from the previous 72 hours. | See also: Recent months at Merriwa
Date/Time
EDT
Temp
°C
App
Temp
°C
Dew
Point
°C
Rel
Hum
%
Delta-T
°C
Wind Press
QNH
hPa
Press
MSL
hPa
Rain since
9am
mm
Dir  Spd
km/h
Gust
km/h
Spd
kts
Gust
kts
28/04:30am 18.7 18.1 15.6 82 1.9 SE 13 17 7 9 1021.1 1019.3 0.0
28/04:00am 18.4 17.3 15.3 82 1.8 SE 15 20 8 11 1021.2 1019.4 0.0
28/03:30am 18.1 17.5 14.6 80 2.1 SE 11 13 6 7 1021.5 1019.8 0.0
28/03:00am 18.3 17.6 14.4 78 2.3 ESE 11 15 6 8 1021.7 1020.0 0.0
28/02:30am 18.8 17.5 14.7 77 2.4 ESE 15 19 8 10 1021.9 1020.2 0.0
28/02:00am 19.6 17.9 14.8 74 2.8 SE 17 22 9 12 1022.1 1020.4 0.0
28/01:30am 19.6 17.5 14.6 73 3.0 SE 19 26 10 14 1022.4 1020.7 0.0
28/01:00am 19.7 18.4 14.7 73 3.0 SE 15 20 8 11 1022.7 1021.0 0.0
28/12:30am 19.3 18.1 14.1 72 3.0 SE 13 15 7 8 1023.0 1021.2 0.0
28/12:00am 20.2 17.0 14.3 69 3.5 SE 24 33 13 18 1023.0 1021.2 0.0
 
Date/Time
EDT
Temp
°C
App
Temp
°C
Dew
Point
°C
Rel
Hum
%
Delta-T
°C
Wind Press
QNH
hPa
Press
MSL
hPa
Rain since
9am
mm
Dir  Spd
km/h
Gust
km/h
Spd
kts
Gust
kts
27/11:30pm 20.7 17.4 14.1 66 3.9 SE 24 32 13 17 1023.1 1021.3 0.0
27/11:00pm 20.6 17.8 13.3 63 4.2 ESE 20 30 11 16 1023.1 1021.3 0.0
27/10:30pm 20.8 19.0 13.3 62 4.4 ESE 15 24 8 13 1023.1 1021.3 0.0
27/10:00pm 18.5 16.4 9.8 57 4.7 ESE 11 13 6 7 1023.1 1021.3 0.0
27/09:30pm 19.9 17.3 9.5 51 5.6 ESE 13 17 7 9 1022.7 1021.0 0.0
27/09:00pm 20.9 16.9 9.2 47 6.3 ESE 20 24 11 13 1022.5 1020.8 0.0
27/08:30pm 22.0 16.5 9.2 44 7.0 ESE 28 37 15 20 1022.2 1020.5 0.0
27/08:00pm 22.4 17.9 9.9 45 6.9 ESE 24 33 13 18 1021.7 1020.0 0.0
27/07:30pm 23.3 18.2 10.7 45 7.1 ESE 28 39 15 21 1021.2 1019.4 0.0
27/07:00pm 24.4 19.0 11.0 43 7.6 ESE 30 43 16 23 1020.8 1019.0 0.0
27/06:30pm 24.8 19.0 11.4 43 7.7 E 33 46 18 25 1020.6 1018.8 0.0
27/06:00pm 26.8 21.6 11.7 39 8.8 ESE 30 41 16 22 1020.4 1018.6 0.0
27/05:30pm 26.9 22.1 11.8 39 8.8 ESE 28 48 15 26 1020.2 1018.4 0.0
27/05:00pm 27.8 23.3 12.6 39 9.0 ESE 28 48 15 26 1019.8 1018.1 0.0
27/04:30pm 28.3 22.9 12.2 37 9.5 ESE 32 43 17 23 1019.9 1018.2 0.0
27/04:00pm 27.4 22.1 11.4 37 9.3 ESE 30 39 16 21 1020.1 1018.3 0.0
27/03:30pm 26.9 22.3 12.2 40 8.6 ESE 28 43 15 23 1020.5 1018.7 0.0
27/03:00pm 27.4 23.0 11.8 38 9.1 ESE 26 43 14 23 1020.7 1018.9 0.0
27/02:30pm 27.0 22.8 13.4 43 8.1 ESE 28 39 15 21 1021.3 1019.5 0.0
27/02:00pm 28.6 25.0 15.2 44 8.3 E 28 39 15 21 1021.7 1020.0 0.0
27/01:30pm 27.7 24.9 14.3 43 8.2 E 22 35 12 19 1022.0 1020.3 0.0
27/01:00pm 26.8 23.6 15.2 49 7.1 ESE 26 35 14 19 1022.5 1020.8 0.0
27/12:30pm 25.3 22.0 15.0 53 6.3 ESE 26 37 14 20 1023.0 1021.2 0.0
27/12:00pm 24.6 21.4 15.2 55 5.7 E 26 35 14 19 1023.4 1021.6 0.0
27/11:30am 22.8 19.1 16.1 66 4.1 ESE 30 41 16 22 1024.0 1022.3 0.0
27/11:00am 22.8 20.4 17.3 71 3.4 E 26 35 14 19 1023.9 1022.2 0.0
27/10:30am 21.8 19.1 16.7 73 3.2 ESE 26 37 14 20 1024.1 1022.4 0.0
27/10:00am 20.8 18.4 16.4 76 2.7 ESE 24 35 13 19 1024.1 1022.4 0.0
27/09:30am 20.0 17.1 16.2 79 2.3 SE 26 33 14 18 1023.9 1022.2 0.0
27/09:00am 19.3 18.1 16.0 81 2.0 ESE 17 28 9 15 1023.7 1021.9 0.0
27/08:30am 18.3 18.1 15.7 85 1.6 SE 11 17 6 9 1023.7 1021.9 0.0
27/08:00am 17.3 18.4 15.5 89 1.1 ENE 4 9 2 5 1023.5 1021.7 0.0
27/07:30am 16.5 16.3 14.7 89 1.1 NE 9 11 5 6 1023.2 1021.4 0.0
27/07:00am 16.3 16.3 14.3 88 1.2 E 7 9 4 5 1022.6 1020.9 0.0
27/06:30am 16.3 15.9 14.1 87 1.3 ESE 9 15 5 8 1022.1 1020.4 0.0
27/06:00am 15.1 15.5 12.4 84 1.5 E 2 7 1 4 1021.8 1020.1 0.0
27/05:30am 15.9 16.9 13.2 84 1.5 CALM 0 0 0 0 1021.7 1020.0 0.0
27/05:00am 15.8 14.9 12.5 81 1.8 E 9 13 5 7 1021.8 1020.1 0.0
27/04:30am 16.5 15.3 12.8 79 2.1 SE 11 17 6 9 1021.4 1019.6 0.0
27/04:00am 16.8 15.4 13.3 80 2.0 SE 13 17 7 9 1021.7 1020.0 0.0
27/03:30am 15.6 14.8 11.8 78 2.1 ESE 7 9 4 5 1021.9 1020.2 0.0
27/03:00am 17.1 15.9 12.8 76 2.4 SE 11 15 6 8 1022.0 1020.3 0.0
27/02:30am 17.2 14.4 12.5 74 2.7 SE 19 26 10 14 1022.3 1020.6 0.0
27/02:00am 18.1 15.8 13.0 72 2.9 SE 17 24 9 13 1022.4 1020.7 0.0
27/01:30am 17.8 15.5 13.1 74 2.7 SE 17 20 9 11 1022.3 1020.6 0.0
27/01:00am 16.4 15.2 12.9 80 2.0 ESE 11 13 6 7 1022.5 1020.8 0.0
27/12:30am 16.1 16.0 12.1 77 2.2 E 4 7 2 4 1022.6 1020.9 0.0
27/12:00am 15.9 14.0 11.7 76 2.3 ESE 13 17 7 9 1022.7 1021.0 0.0
 
Date/Time
EDT
Temp
°C
App
Temp
°C
Dew
Point
°C
Rel
Hum
%
Delta-T
°C
Wind Press
QNH
hPa
Press
MSL
hPa
Rain since
9am
mm
Dir  Spd
km/h
Gust
km/h
Spd
kts
Gust
kts
26/11:30pm 17.1 15.1 12.6 75 2.5 ESE 15 19 8 10 1022.6 1020.9 0.0
26/11:00pm 17.4 14.6 12.5 73 2.8 ESE 19 22 10 12 1022.8 1021.1 0.0
26/10:30pm 18.0 15.2 12.7 71 3.0 E 19 26 10 14 1023.0 1021.2 0.0
26/10:00pm 18.8 16.1 12.8 68 3.4 ESE 19 26 10 14 1022.6 1020.9 0.0
26/09:30pm 19.2 16.4 12.7 66 3.7 ESE 19 28 10 15 1022.4 1020.7 0.0
26/09:00pm 20.1 16.0 12.6 62 4.3 SE 26 35 14 19 1021.9 1020.2 0.0
26/08:30pm 20.0 16.8 12.0 60 4.5 SE 20 28 11 15 1021.6 1019.9 0.0
26/08:00pm 20.7 15.7 12.1 58 4.9 SE 30 39 16 21 1021.2 1019.4 0.0
26/07:30pm 21.4 16.4 12.3 56 5.2 SE 30 41 16 22 1020.9 1019.1 0.0
26/07:00pm 22.1 17.8 12.1 53 5.7 ESE 26 39 14 21 1020.4 1018.6 0.0
26/06:30pm 23.7 19.0 12.0 48 6.7 ESE 28 39 15 21 1019.7 1018.0 0.0
26/06:00pm 24.7 19.3 12.3 46 7.2 ESE 32 44 17 24 1019.6 1017.9 0.0
26/05:30pm 25.2 20.5 12.1 44 7.6 E 28 39 15 21 1019.3 1017.6 0.0
26/05:00pm 24.9 19.2 11.8 44 7.6 E 33 46 18 25 1019.4 1017.7 0.0
26/04:32pm 25.1 20.5 12.3 45 7.5 E 28 46 15 25 1019.5 1017.8 0.0
26/04:30pm 25.1 20.8 12.0 44 7.6 E 26 46 14 25 1019.5 1017.8 0.0
26/04:00pm 26.1 21.9 13.6 46 7.5 ESE 28 37 15 20 1019.4 1017.7 0.0
26/03:50pm 25.6 21.3 13.1 46 7.4 ESE 28 46 15 25 1019.5 1017.8 0.0
26/03:30pm 27.4 24.8 14.8 46 7.7 E 22 30 12 16 1019.5 1017.8 0.0
26/03:00pm 26.5 22.7 12.5 41 8.2 E 24 39 13 21 1020.1 1018.3 0.0
26/02:30pm 26.7 23.6 13.4 43 8.0 ESE 22 33 12 18 1020.7 1018.9 0.0
26/02:00pm 26.0 22.5 13.5 46 7.4 ESE 24 39 13 21 1021.2 1019.4 0.0
26/01:30pm 24.7 21.2 13.3 49 6.7 ESE 24 35 13 19 1021.6 1019.9 0.0
26/01:00pm 22.9 18.9 13.1 54 5.7 SE 26 35 14 19 1022.0 1020.3 0.0
26/12:30pm 22.7 18.6 13.7 56 5.3 SE 28 39 15 21 1022.2 1020.5 0.0
26/12:00pm 22.4 18.6 13.5 57 5.2 SE 26 33 14 18 1022.2 1020.5 0.0
26/11:30am 22.9 18.9 14.2 58 5.2 ESE 28 35 15 19 1022.1 1020.4 0.0
26/11:00am 22.8 18.7 14.9 61 4.7 ESE 30 39 16 21 1022.2 1020.5 0.0
26/10:30am 22.1 18.3 14.7 63 4.4 SE 28 37 15 20 1022.1 1020.4 0.0
26/10:00am 21.9 18.5 15.7 68 3.8 ESE 28 41 15 22 1021.9 1020.2 0.0
26/09:30am 20.6 16.7 15.6 73 3.0 SE 30 43 16 23 1021.9 1020.2 0.0
26/09:00am 20.2 16.1 16.0 77 2.5 ESE 32 44 17 24 1021.5 1019.8 0.0
26/08:30am 20.4 18.5 16.6 79 2.3 ESE 22 32 12 17 1021.1 1019.3 0.0
26/08:00am 19.5 18.2 16.7 84 1.7 ESE 19 24 10 13 1020.7 1018.9 0.0
26/07:30am 17.7 17.0 16.4 92 0.8 SE 15 20 8 11 1020.6 1018.8 0.0
26/07:00am 17.5 16.8 16.4 93 0.7 SE 15 22 8 12 1020.3 1018.5 0.0
26/06:30am 17.2 16.8 16.2 94 0.6 ESE 13 17 7 9 1019.7 1018.0 0.0
26/06:00am 17.1 16.9 16.6 97 0.3 ESE 13 15 7 8 1019.3 1017.6 0.0
26/05:30am 17.0 17.1 16.5 97 0.3 SE 11 15 6 8 1019.0 1017.2 0.0
26/05:00am 16.8 17.3 16.5 98 0.2 SE 9 11 5 6 1018.6 1016.8 0.0
26/04:30am 16.7 16.8 16.4 98 0.2 ESE 11 15 6 8 1018.5 1016.7 0.0
26/04:00am 16.7 16.4 16.4 98 0.2 ESE 13 17 7 9 1018.7 1016.9 0.0
26/03:30am 16.2 16.5 15.9 98 0.2 ESE 9 13 5 7 1018.8 1017.0 0.0
26/03:00am 16.9 16.3 16.6 98 0.2 ESE 15 19 8 10 1019.0 1017.2 0.0
26/02:30am 16.9 16.7 16.6 98 0.2 ESE 13 19 7 10 1019.3 1017.6 0.0
26/02:00am 17.3 16.0 16.8 97 0.3 SE 19 26 10 14 1019.6 1017.9 0.0
26/01:30am 17.4 15.7 16.3 93 0.7 SE 20 33 11 18 1019.9 1018.2 0.0
26/01:00am 17.9 16.3 16.6 92 0.8 ESE 20 30 11 16 1020.4 1018.6 0.0
26/12:30am 17.6 16.3 16.8 95 0.5 E 19 26 10 14 1020.4 1018.6 0.0
26/12:00am 18.4 17.2 16.0 86 1.4 E 17 26 9 14 1020.4 1018.6 0.0
 
Date/Time
EDT
Temp
°C
App
Temp
°C
Dew
Point
°C
Rel
Hum
%
Delta-T
°C
Wind Press
QNH
hPa
Press
MSL
hPa
Rain since
9am
mm
Dir  Spd
km/h
Gust
km/h
Spd
kts
Gust
kts
25/11:30pm 18.7 16.5 15.9 84 1.7 ESE 22 32 12 17 1020.4 1018.6 0.0
25/11:00pm 19.1 15.3 15.8 81 2.0 ESE 30 41 16 22 1019.9 1018.2 0.0
25/10:30pm 19.3 16.6 15.6 79 2.2 ESE 24 35 13 19 1019.6 1017.9 0.0
25/10:00pm 19.4 16.0 15.7 79 2.2 SE 28 39 15 21 1019.4 1017.7 0.0
25/09:30pm 19.4 15.8 15.3 77 2.5 ESE 28 39 15 21 1019.1 1017.4 0.0
25/09:00pm 19.8 16.6 15.4 76 2.6 ESE 26 35 14 19 1019.4 1017.7 0.0
25/08:30pm 20.0 18.1 15.2 74 2.9 ESE 19 26 10 14 1018.9 1017.1 0.0
25/08:00pm 20.2 17.0 15.2 73 3.0 SE 26 35 14 19 1019.0 1017.2 0.0
25/07:30pm 20.7 17.1 15.3 71 3.3 SE 28 35 15 19 1018.9 1017.1 0.0
25/07:01pm 21.5 17.9 15.3 68 3.7 SE 28 46 15 25 1018.5 1016.7 0.0
25/07:00pm 21.5 17.9 15.3 68 3.7 SE 28 39 15 21 1018.6 1016.8 0.0
25/06:30pm 22.2 18.6 15.3 65 4.2 ESE 28 37 15 20 1018.4 1016.6 0.0
25/06:00pm 23.4 19.1 15.5 61 4.8 ESE 32 43 17 23 1017.4 1015.6 0.0
25/05:30pm 25.1 21.4 16.0 57 5.6 SE 30 44 16 24 1017.4 1015.6 0.0
25/05:00pm 26.0 22.1 16.5 55 5.9 SE 32 41 17 22 1017.3 1015.5 0.0
25/04:30pm 26.6 22.6 16.2 52 6.5 SE 32 43 17 23 1017.1 1015.4 0.0
25/04:00pm 27.1 23.8 16.1 51 6.9 SE 28 43 15 23 1017.3 1015.5 0.0
25/03:30pm 29.0 26.3 17.5 49 7.4 SE 28 41 15 22 1017.5 1015.7 0.0
25/03:00pm 28.4 26.4 17.3 51 7.1 SE 24 37 13 20 1017.7 1015.9 0.0
25/02:30pm 27.8 25.3 16.1 49 7.3 ESE 24 37 13 20 1017.9 1016.1 0.0
25/02:00pm 28.2 25.3 17.1 51 7.1 SE 28 41 15 22 1018.3 1016.5 0.0
25/01:30pm 26.5 23.0 14.6 48 7.2 SE 26 41 14 22 1018.7 1016.9 0.0
25/01:00pm 28.6 26.3 17.5 51 7.1 SE 26 37 14 20 1018.8 1017.0 0.0
25/12:43pm 26.7 23.3 15.7 51 6.8 SSE 28 48 15 26 1019.0 1017.2 0.0
25/12:30pm 28.0 25.5 17.2 52 6.9 ESE 26 37 14 20 1019.1 1017.4 0.0
25/12:14pm 26.4 22.6 14.8 49 7.1 ESE 28 48 15 26 1019.3 1017.6 0.0
25/12:00pm 28.7 27.0 17.2 49 7.3 ESE 22 33 12 18 1019.4 1017.7 0.0
25/11:30am 27.1 25.1 16.4 52 6.7 E 22 32 12 17 1019.7 1018.0 0.0
25/11:00am 26.6 24.0 15.9 51 6.6 E 24 32 13 17 1020.2 1018.4 0.0
25/10:30am 25.1 21.7 15.7 56 5.8 ESE 28 37 15 20 1020.5 1018.7 0.0
25/10:00am 25.2 22.1 16.6 59 5.4 E 28 37 15 20 1020.6 1018.8 0.0
25/09:30am 23.9 22.1 16.9 65 4.4 E 22 33 12 18 1020.7 1018.9 0.0
25/09:00am 22.0 21.4 16.7 72 3.3 ESE 15 24 8 13 1020.8 1019.0 0.0
25/08:30am 21.1 21.2 17.5 80 2.3 ESE 13 20 7 11 1020.6 1018.8 0.0
25/08:00am 19.7 19.8 17.5 87 1.4 SE 13 15 7 8 1020.1 1018.3 0.0
25/07:30am 17.6 18.4 17.3 98 0.2 ESE 9 11 5 6 1019.7 1018.0 0.0
25/07:00am 15.6 16.2 15.3 98 0.2 E 6 7 3 4 1019.5 1017.8 0.0
25/06:30am 15.4 15.7 14.6 95 0.5 ESE 6 6 3 3 1019.3 1017.6 0.0
25/06:00am 15.9 16.6 14.4 91 0.9 ESE 4 7 2 4 1019.2 1017.5 0.0
25/05:30am 16.7 17.0 15.1 90 0.9 ESE 7 9 4 5 1019.0 1017.2 0.0
25/05:00am 17.6 17.4 15.6 88 1.2 ESE 11 13 6 7 1019.0 1017.2 0.0

Other Formats:

Comma delimited format used in spreadsheet applications
http://www.bom.gov.au/fwo/IDN60801/IDN60801.95754.axf

JavaScript Object Notation format (JSON) in row-major order
http://www.bom.gov.au/fwo/IDN60801/IDN60801.95754.json